Terminal Aerodrome Forecast
Issued by NWS Central Illinois

Home | Current Version | Previous Version | Text Only | Print | Product List | Glossary On
Versions: 1 2 3 4 5 6 7 8 9 10 11 12 13 14 15 16 17 18 19
000
FTUS43 KILX 120525 AAB
TAFSPI
TAF AMD
KSPI 120525Z 1205/1306 33019G30KT P6SM OVC015
     FM120700 33018G29KT P6SM OVC025
     FM120900 33017G28KT P6SM BKN035
     FM121000 32015G26KT P6SM SCT200
     FM122300 30012KT P6SM SKC
     FM130100 28005KT P6SM SKC=

USA.gov is the U.S. government's official web portal to all federal, state and local government web resources and services.